Time;durP1;ratioP1;P1;durP2;ratioP2;P2;SDS_P1;SDS_P2;PMS_P1;PMS_P2;Temp;Humidity;BMP_temperature;BMP_pressure;BME280_temperature;BME280_humidity;BME280_pressure;Samples;Min_cycle;Max_cycle;Signal;HPM_P1;HPM_P2
2022/01/29 00:02:16;;;;;;;30.48;14.93;;;;;;;;;;4888826;29;20049;-80
2022/01/29 00:05:01;;;;;;;23.52;12.38;;;;;;;;;;4889211;29;20053;-83
2022/01/29 00:07:47;;;;;;;22.20;12.32;;;;;;;;;;4883387;29;20044;-81
2022/01/29 00:10:32;;;;;;;14.52;7.78;;;;;;;;;;4883247;29;20044;-81
2022/01/29 00:13:18;;;;;;;17.33;8.63;;;;;;;;;;4882401;29;20037;-81
2022/01/29 00:16:04;;;;;;;15.05;8.45;;;;;;;;;;4883221;29;20057;-80
2022/01/29 00:18:49;;;;;;;14.65;6.60;;;;;;;;;;4882016;29;20041;-80
2022/01/29 00:21:35;;;;;;;19.67;7.05;;;;;;;;;;4882609;29;20041;-82
2022/01/29 00:24:20;;;;;;;15.80;7.47;;;;;;;;;;4888832;29;20057;-82
2022/01/29 00:27:09;;;;;;;11.50;5.28;;;;;;;;;;4881961;29;20397;-84
2022/01/29 00:29:55;;;;;;;9.93;5.80;;;;;;;;;;4874846;29;20488;-83
2022/01/29 00:32:40;;;;;;;6.95;4.55;;;;;;;;;;4891683;29;20049;-81
2022/01/29 00:35:26;;;;;;;3.85;2.90;;;;;;;;;;4885456;29;20049;-79
2022/01/29 00:38:11;;;;;;;10.32;5.47;;;;;;;;;;4892372;29;20045;-79
2022/01/29 00:40:57;;;;;;;10.05;5.72;;;;;;;;;;4886339;29;20494;-81
2022/01/29 00:43:43;;;;;;;8.23;3.92;;;;;;;;;;4883672;29;20049;-82
2022/01/29 00:46:28;;;;;;;9.80;4.60;;;;;;;;;;4882025;29;20061;-81
2022/01/29 00:49:14;;;;;;;12.85;5.20;;;;;;;;;;4881925;29;20060;-81
2022/01/29 00:51:59;;;;;;;12.73;5.40;;;;;;;;;;4888554;29;20052;-81
2022/01/29 00:54:45;;;;;;;12.55;4.88;;;;;;;;;;4887759;29;20045;-81
2022/01/29 00:57:33;;;;;;;9.02;4.22;;;;;;;;;;4882074;29;20049;-81
2022/01/29 01:00:18;;;;;;;10.70;4.00;;;;;;;;;;4881899;29;20409;-80
2022/01/29 01:03:04;;;;;;;12.82;6.93;;;;;;;;;;4881720;29;20061;-81
2022/01/29 01:05:52;;;;;;;12.02;5.32;;;;;;;;;;4881803;29;20048;-80
2022/01/29 01:08:37;;;;;;;16.05;7.15;;;;;;;;;;4881408;29;20045;-81
2022/01/29 01:11:22;;;;;;;14.77;6.82;;;;;;;;;;4881759;29;20061;-83
2022/01/29 01:14:08;;;;;;;10.20;5.43;;;;;;;;;;4881648;29;20057;-82
2022/01/29 01:16:53;;;;;;;15.48;6.50;;;;;;;;;;4881393;29;20405;-81
2022/01/29 01:19:39;;;;;;;14.07;6.57;;;;;;;;;;4881951;29;20057;-81
2022/01/29 01:22:29;;;;;;;16.38;6.72;;;;;;;;;;4881323;29;20473;-82
2022/01/29 01:25:14;;;;;;;18.63;7.93;;;;;;;;;;4854022;29;20049;-80
2022/01/29 01:28:00;;;;;;;17.58;8.32;;;;;;;;;;4887544;29;20049;-81
2022/01/29 01:30:45;;;;;;;15.60;7.68;;;;;;;;;;4881059;29;20053;-81
2022/01/29 01:33:31;;;;;;;20.23;8.95;;;;;;;;;;4881635;29;20044;-82
2022/01/29 01:36:23;;;;;;;21.45;9.98;;;;;;;;;;4887190;29;20053;-81
2022/01/29 01:39:12;;;;;;;22.05;8.98;;;;;;;;;;4880878;29;20041;-80
2022/01/29 01:42:07;;;;;;;14.05;6.40;;;;;;;;;;4881055;29;20041;-80
2022/01/29 01:44:53;;;;;;;15.85;7.72;;;;;;;;;;4881172;29;20056;-81
2022/01/29 01:47:39;;;;;;;12.77;7.05;;;;;;;;;;4881065;29;20057;-81
2022/01/29 01:50:25;;;;;;;13.77;6.53;;;;;;;;;;4880715;29;20396;-82
2022/01/29 01:53:11;;;;;;;11.43;5.30;;;;;;;;;;4880737;29;20053;-81
2022/01/29 01:55:56;;;;;;;9.88;4.20;;;;;;;;;;4887096;29;20048;-81
2022/01/29 01:58:41;;;;;;;7.63;4.32;;;;;;;;;;4886984;29;20045;-81
2022/01/29 02:01:27;;;;;;;7.25;4.18;;;;;;;;;;4866845;29;20050;-82
2022/01/29 02:04:12;;;;;;;8.57;4.53;;;;;;;;;;4880628;29;20049;-81
2022/01/29 02:06:59;;;;;;;8.50;4.22;;;;;;;;;;4886958;29;20404;-81
2022/01/29 02:09:44;;;;;;;10.18;4.57;;;;;;;;;;4880436;29;20049;-81
2022/01/29 02:12:33;;;;;;;9.95;4.53;;;;;;;;;;4886682;29;20489;-80
2022/01/29 02:15:19;;;;;;;7.57;4.53;;;;;;;;;;4880393;29;20049;-81
2022/01/29 02:18:05;;;;;;;9.52;4.78;;;;;;;;;;4880375;29;20057;-80
2022/01/29 02:20:54;;;;;;;9.50;4.88;;;;;;;;;;4880287;29;20045;-80
2022/01/29 02:23:43;;;;;;;7.50;4.05;;;;;;;;;;4886843;29;20053;-82
2022/01/29 02:26:28;;;;;;;8.85;4.63;;;;;;;;;;4880454;29;20056;-80
2022/01/29 02:29:14;;;;;;;11.27;5.28;;;;;;;;;;4866310;29;20373;-80
2022/01/29 02:31:59;;;;;;;4.78;3.10;;;;;;;;;;4886020;29;20477;-81
2022/01/29 02:34:45;;;;;;;1.73;1.50;;;;;;;;;;4880313;29;20048;-81
2022/01/29 02:37:30;;;;;;;5.35;2.80;;;;;;;;;;4871884;29;20053;-80
2022/01/29 02:40:17;;;;;;;4.50;2.90;;;;;;;;;;4880081;29;20053;-82
2022/01/29 02:43:13;;;;;;;5.40;2.63;;;;;;;;;;4872501;29;20052;-81
2022/01/29 02:46:07;;;;;;;4.25;3.10;;;;;;;;;;4880223;29;20061;-81
2022/01/29 02:48:53;;;;;;;4.18;2.70;;;;;;;;;;4880131;29;20492;-82
2022/01/29 02:51:52;;;;;;;2.53;2.08;;;;;;;;;;4880796;29;20053;-82
2022/01/29 02:54:37;;;;;;;2.92;2.03;;;;;;;;;;4872792;29;20052;-83
2022/01/29 02:57:22;;;;;;;3.17;1.73;;;;;;;;;;4880454;29;20049;-82
2022/01/29 03:00:10;;;;;;;5.97;2.67;;;;;;;;;;4887524;29;20053;-82
2022/01/29 03:02:55;;;;;;;4.13;1.83;;;;;;;;;;4886897;29;20049;-82
2022/01/29 03:05:41;;;;;;;2.83;1.60;;;;;;;;;;4880338;29;20045;-85
2022/01/29 03:08:27;;;;;;;6.93;3.58;;;;;;;;;;4886584;29;20465;-81
2022/01/29 03:11:14;;;;;;;5.07;2.97;;;;;;;;;;4886310;29;20057;-82
2022/01/29 03:14:00;;;;;;;3.53;2.20;;;;;;;;;;4865933;29;20041;-82
2022/01/29 03:16:46;;;;;;;5.43;2.53;;;;;;;;;;4879909;29;20045;-82
2022/01/29 03:19:31;;;;;;;4.28;2.35;;;;;;;;;;4885998;29;20041;-83
2022/01/29 03:22:17;;;;;;;3.22;2.13;;;;;;;;;;4879839;29;20397;-81
2022/01/29 03:25:04;;;;;;;6.25;2.83;;;;;;;;;;4886083;29;20056;-82
2022/01/29 03:27:50;;;;;;;4.10;2.50;;;;;;;;;;4881187;29;20056;-83
2022/01/29 03:30:35;;;;;;;3.92;2.10;;;;;;;;;;4883449;29;20049;-83
2022/01/29 03:33:22;;;;;;;5.30;2.72;;;;;;;;;;4884712;29;20041;-79
2022/01/29 03:36:08;;;;;;;2.97;1.98;;;;;;;;;;4878402;29;20045;-81
2022/01/29 03:38:53;;;;;;;5.20;2.80;;;;;;;;;;4886290;29;20049;-81
2022/01/29 03:41:39;;;;;;;4.55;2.13;;;;;;;;;;4879763;29;20045;-82
2022/01/29 03:44:25;;;;;;;5.63;2.88;;;;;;;;;;4881202;29;20061;-80
2022/01/29 03:47:11;;;;;;;6.35;1.98;;;;;;;;;;4856046;29;20061;-83
2022/01/29 03:49:57;;;;;;;3.30;2.17;;;;;;;;;;4883287;29;20041;-81
2022/01/29 03:52:42;;;;;;;6.80;2.80;;;;;;;;;;4889566;29;20049;-83
2022/01/29 03:55:28;;;;;;;5.63;2.83;;;;;;;;;;4882916;29;20041;-81
2022/01/29 03:58:13;;;;;;;7.78;3.42;;;;;;;;;;4883682;29;20045;-82
2022/01/29 04:00:59;;;;;;;10.95;3.47;;;;;;;;;;4883343;29;20049;-81
2022/01/29 04:03:44;;;;;;;8.00;3.90;;;;;;;;;;4882977;29;20052;-81
2022/01/29 04:06:31;;;;;;;2.83;1.80;;;;;;;;;;4882868;29;20044;-82
2022/01/29 04:09:17;;;;;;;8.48;3.15;;;;;;;;;;4868812;29;20037;-82
2022/01/29 04:12:03;;;;;;;8.02;3.20;;;;;;;;;;4883289;29;20053;-82
2022/01/29 04:14:49;;;;;;;4.50;2.67;;;;;;;;;;4883003;29;20048;-82
2022/01/29 04:17:35;;;;;;;6.90;3.33;;;;;;;;;;4882394;29;20484;-81
2022/01/29 04:20:21;;;;;;;7.50;2.97;;;;;;;;;;4875301;29;20049;-82
2022/01/29 04:23:07;;;;;;;8.95;3.70;;;;;;;;;;4882734;29;20481;-83
2022/01/29 04:25:53;;;;;;;11.10;4.25;;;;;;;;;;4882771;29;20396;-83
2022/01/29 04:28:42;;;;;;;4.43;2.47;;;;;;;;;;4882563;29;20053;-81
2022/01/29 04:31:36;;;;;;;5.72;2.72;;;;;;;;;;4882414;29;20045;-83
2022/01/29 04:34:21;;;;;;;8.68;3.63;;;;;;;;;;4882606;29;20045;-81
2022/01/29 04:37:08;;;;;;;8.85;3.30;;;;;;;;;;4882182;29;20477;-82
2022/01/29 04:39:53;;;;;;;6.38;3.05;;;;;;;;;;4883039;29;20040;-83
2022/01/29 04:42:39;;;;;;;10.02;2.97;;;;;;;;;;4882693;29;20049;-81
2022/01/29 04:45:24;;;;;;;6.47;3.25;;;;;;;;;;4882480;29;20056;-84
2022/01/29 04:48:10;;;;;;;10.63;4.10;;;;;;;;;;4869051;29;20044;-82
2022/01/29 04:50:55;;;;;;;10.55;3.25;;;;;;;;;;4882062;29;20041;-82
2022/01/29 04:53:41;;;;;;;5.72;2.47;;;;;;;;;;4882726;29;20057;-82
2022/01/29 04:56:27;;;;;;;5.30;3.03;;;;;;;;;;4881830;29;20045;-83
2022/01/29 04:59:12;;;;;;;6.47;3.30;;;;;;;;;;4880999;29;20049;-82
2022/01/29 05:01:58;;;;;;;7.95;3.92;;;;;;;;;;4882051;29;20053;-82
2022/01/29 05:04:43;;;;;;;8.35;3.33;;;;;;;;;;4881767;29;20049;-82
2022/01/29 05:07:29;;;;;;;8.27;3.42;;;;;;;;;;4873600;29;20401;-81
2022/01/29 05:10:15;;;;;;;12.60;4.65;;;;;;;;;;4867802;29;20061;-82
2022/01/29 05:13:07;;;;;;;10.18;3.72;;;;;;;;;;4877688;29;20044;-81
2022/01/29 05:16:24;;;;;;;9.40;4.15;;;;;;;;;;4876460;29;20488;-81
2022/01/29 05:28:28;;;;;;;3.42;2.17;;;;;;;;;;4890473;29;20049;-82
2022/01/29 05:31:13;;;;;;;9.40;4.10;;;;;;;;;;4896043;29;20040;-82
2022/01/29 05:34:00;;;;;;;9.90;3.40;;;;;;;;;;4871829;29;20049;-85
2022/01/29 05:36:45;;;;;;;6.47;3.20;;;;;;;;;;4872511;29;20485;-82
2022/01/29 05:39:31;;;;;;;7.82;3.25;;;;;;;;;;4887580;29;20056;-83
2022/01/29 05:42:17;;;;;;;10.93;3.80;;;;;;;;;;4870319;29;20053;-81
2022/01/29 05:45:03;;;;;;;7.22;2.17;;;;;;;;;;4873863;29;20041;-82
2022/01/29 05:47:48;;;;;;;7.82;3.30;;;;;;;;;;4870899;29;20057;-83
2022/01/29 05:50:33;;;;;;;13.40;3.55;;;;;;;;;;4877464;29;20061;-81
2022/01/29 05:53:19;;;;;;;11.57;3.90;;;;;;;;;;4880935;29;20049;-81
2022/01/29 05:56:06;;;;;;;8.32;4.55;;;;;;;;;;4899336;29;20052;-81
2022/01/29 05:58:51;;;;;;;16.85;5.30;;;;;;;;;;4906040;29;20048;-82
2022/01/29 06:01:37;;;;;;;12.90;4.72;;;;;;;;;;4892579;29;20053;-82
2022/01/29 06:04:22;;;;;;;12.02;4.18;;;;;;;;;;4879301;29;20041;-82
2022/01/29 06:07:07;;;;;;;20.90;6.78;;;;;;;;;;4880263;29;20049;-81
2022/01/29 06:09:52;;;;;;;8.20;2.65;;;;;;;;;;4886585;29;20045;-82
2022/01/29 06:12:38;;;;;;;12.00;4.60;;;;;;;;;;4881142;29;20049;-82
2022/01/29 06:15:23;;;;;;;13.45;5.60;;;;;;;;;;4879098;29;20049;-82
2022/01/29 06:18:15;;;;;;;20.00;4.68;;;;;;;;;;4880919;29;20052;-82
2022/01/29 06:21:04;;;;;;;10.40;4.60;;;;;;;;;;4900866;29;20049;-83
2022/01/29 06:23:49;;;;;;;12.52;5.68;;;;;;;;;;4883942;29;20049;-82
2022/01/29 06:26:35;;;;;;;12.43;5.70;;;;;;;;;;4890306;29;20053;-80
2022/01/29 06:29:21;;;;;;;9.73;5.03;;;;;;;;;;4889465;29;20040;-82
2022/01/29 06:32:06;;;;;;;5.95;3.47;;;;;;;;;;4888410;29;20044;-84
2022/01/29 06:34:52;;;;;;;12.52;4.32;;;;;;;;;;4887381;29;20053;-83
2022/01/29 06:37:38;;;;;;;9.05;4.28;;;;;;;;;;4879940;29;20045;-82
2022/01/29 06:40:23;;;;;;;15.07;5.10;;;;;;;;;;4880884;29;20045;-81
2022/01/29 06:43:09;;;;;;;15.63;6.00;;;;;;;;;;4879212;29;20041;-83
2022/01/29 06:45:54;;;;;;;11.75;5.00;;;;;;;;;;4879237;29;20053;-82
2022/01/29 06:48:40;;;;;;;12.40;5.30;;;;;;;;;;4886366;29;20044;-82
2022/01/29 06:51:25;;;;;;;18.80;7.30;;;;;;;;;;4879819;29;20061;-82
2022/01/29 06:54:11;;;;;;;25.23;8.40;;;;;;;;;;4880434;29;20053;-82
2022/01/29 06:56:56;;;;;;;16.42;6.50;;;;;;;;;;4880161;29;20409;-81
2022/01/29 06:59:42;;;;;;;13.27;4.80;;;;;;;;;;4879930;29;20041;-83
2022/01/29 07:02:27;;;;;;;10.90;4.80;;;;;;;;;;4886588;29;20053;-82
2022/01/29 07:05:13;;;;;;;14.73;6.55;;;;;;;;;;4879743;29;20397;-82
2022/01/29 07:07:59;;;;;;;15.68;5.50;;;;;;;;;;4883349;29;20041;-82
2022/01/29 07:10:46;;;;;;;15.48;6.85;;;;;;;;;;4870383;29;20057;-83
2022/01/29 07:13:31;;;;;;;17.73;5.93;;;;;;;;;;4867549;29;20430;-81
2022/01/29 07:16:17;;;;;;;11.30;4.90;;;;;;;;;;4878316;29;20413;-81
2022/01/29 07:19:03;;;;;;;11.20;6.68;;;;;;;;;;4906873;29;20048;-81
2022/01/29 07:21:49;;;;;;;5.35;3.50;;;;;;;;;;4902621;29;20048;-82
2022/01/29 07:24:35;;;;;;;11.57;5.10;;;;;;;;;;4915202;29;20049;-82
2022/01/29 07:27:21;;;;;;;6.55;3.85;;;;;;;;;;4908395;29;20056;-82
2022/01/29 07:30:07;;;;;;;12.57;5.03;;;;;;;;;;4877445;29;20045;-83
2022/01/29 07:32:52;;;;;;;43.67;15.95;;;;;;;;;;4864968;29;20050;-82
2022/01/29 07:35:37;;;;;;;20.30;10.13;;;;;;;;;;4864623;29;20049;-83
2022/01/29 07:38:22;;;;;;;25.08;10.13;;;;;;;;;;4870897;29;20050;-84
2022/01/29 07:41:08;;;;;;;10.65;5.15;;;;;;;;;;4868964;29;20045;-84
2022/01/29 07:43:53;;;;;;;11.48;5.60;;;;;;;;;;4863435;29;20045;-81
2022/01/29 07:46:39;;;;;;;12.93;4.38;;;;;;;;;;4878866;29;20057;-85
2022/01/29 07:49:24;;;;;;;15.25;5.65;;;;;;;;;;4879911;29;20056;-85
2022/01/29 07:52:10;;;;;;;9.75;4.38;;;;;;;;;;4883744;29;20049;-80
2022/01/29 07:54:56;;;;;;;18.17;8.13;;;;;;;;;;4889135;29;20045;-82
2022/01/29 07:57:41;;;;;;;27.92;11.00;;;;;;;;;;4885508;29;20041;-81
2022/01/29 08:00:28;;;;;;;23.52;8.43;;;;;;;;;;4885167;29;20049;-81
2022/01/29 08:03:13;;;;;;;15.68;5.32;;;;;;;;;;4872991;29;20405;-81
2022/01/29 08:05:59;;;;;;;10.73;5.20;;;;;;;;;;4883030;29;20049;-80
2022/01/29 08:08:45;;;;;;;19.60;9.75;;;;;;;;;;4883541;29;20056;-80
2022/01/29 08:11:30;;;;;;;25.80;11.18;;;;;;;;;;4883854;29;20045;-81
2022/01/29 08:14:16;;;;;;;19.75;9.02;;;;;;;;;;4883689;29;20052;-81
2022/01/29 08:17:01;;;;;;;14.50;7.57;;;;;;;;;;4882152;29;20045;-82
2022/01/29 08:19:49;;;;;;;9.80;6.43;;;;;;;;;;4883251;29;20053;-84
2022/01/29 08:22:35;;;;;;;29.10;14.55;;;;;;;;;;4882943;29;20048;-81
2022/01/29 08:25:20;;;;;;;15.23;6.82;;;;;;;;;;4882988;29;20037;-86
2022/01/29 08:28:06;;;;;;;24.02;12.50;;;;;;;;;;4883270;29;20057;-86
2022/01/29 08:30:52;;;;;;;33.90;15.65;;;;;;;;;;4891600;29;20041;-86
2022/01/29 08:33:38;;;;;;;22.90;7.93;;;;;;;;;;4896190;29;20057;-85
2022/01/29 08:36:23;;;;;;;29.58;11.18;;;;;;;;;;4891787;29;20056;-86
2022/01/29 08:39:09;;;;;;;22.38;11.63;;;;;;;;;;4870965;29;20041;-85
2022/01/29 08:41:55;;;;;;;21.08;7.80;;;;;;;;;;4869550;29;20053;-84
2022/01/29 08:44:43;;;;;;;15.40;5.35;;;;;;;;;;4860969;29;20053;-85
2022/01/29 08:47:28;;;;;;;25.98;5.82;;;;;;;;;;4870334;29;20050;-84
2022/01/29 08:50:14;;;;;;;29.48;10.18;;;;;;;;;;4891999;29;20045;-84
2022/01/29 08:53:00;;;;;;;10.52;4.78;;;;;;;;;;4897153;29;20052;-84
2022/01/29 08:55:46;;;;;;;9.98;4.97;;;;;;;;;;4892080;29;20053;-88
2022/01/29 08:58:31;;;;;;;9.27;4.63;;;;;;;;;;4910188;29;20403;-85
2022/01/29 09:01:17;;;;;;;10.10;5.32;;;;;;;;;;4914456;29;20476;-86
2022/01/29 09:04:03;;;;;;;16.95;8.05;;;;;;;;;;4906732;29;20045;-85
2022/01/29 09:06:48;;;;;;;19.95;8.77;;;;;;;;;;4909039;29;20119;-85
2022/01/29 09:09:34;;;;;;;27.25;11.60;;;;;;;;;;4883937;29;20160;-81
2022/01/29 09:12:19;;;;;;;9.20;5.97;;;;;;;;;;4901309;29;20033;-81
2022/01/29 09:15:05;;;;;;;14.07;5.25;;;;;;;;;;4877326;29;20045;-80
2022/01/29 09:17:50;;;;;;;17.33;7.50;;;;;;;;;;4879848;29;20421;-79
2022/01/29 09:20:36;;;;;;;20.17;10.07;;;;;;;;;;4881203;29;20053;-81
2022/01/29 09:23:21;;;;;;;13.63;6.15;;;;;;;;;;4873846;29;20045;-79
2022/01/29 09:26:07;;;;;;;19.52;8.40;;;;;;;;;;4876726;29;20049;-82
2022/01/29 09:28:53;;;;;;;18.63;8.20;;;;;;;;;;4878554;29;20049;-82
2022/01/29 09:31:38;;;;;;;20.67;9.43;;;;;;;;;;4878998;29;20057;-81
2022/01/29 09:34:24;;;;;;;13.32;6.28;;;;;;;;;;4876651;29;20079;-82
2022/01/29 09:37:10;;;;;;;31.70;10.55;;;;;;;;;;4898962;29;20056;-80
2022/01/29 09:39:55;;;;;;;16.63;7.82;;;;;;;;;;4905985;29;20045;-81
2022/01/29 09:42:42;;;;;;;22.13;11.80;;;;;;;;;;4903647;29;20048;-83
2022/01/29 09:45:29;;;;;;;17.83;7.85;;;;;;;;;;4891162;29;20061;-78
2022/01/29 09:48:15;;;;;;;9.43;5.03;;;;;;;;;;4880452;29;20057;-80
2022/01/29 09:51:01;;;;;;;15.75;8.07;;;;;;;;;;4900504;29;20052;-82
2022/01/29 09:53:46;;;;;;;8.80;4.90;;;;;;;;;;4906160;29;20053;-80
2022/01/29 09:56:33;;;;;;;9.35;5.05;;;;;;;;;;4904804;29;20044;-80
2022/01/29 09:59:18;;;;;;;12.95;6.18;;;;;;;;;;4885473;29;20136;-79
2022/01/29 10:02:12;;;;;;;10.55;5.40;;;;;;;;;;4876188;29;20053;-80
2022/01/29 10:04:58;;;;;;;12.25;5.38;;;;;;;;;;4883931;29;20488;-80
2022/01/29 10:08:00;;;;;;;13.15;4.97;;;;;;;;;;4880055;29;20049;-79
2022/01/29 10:11:04;;;;;;;17.20;9.00;;;;;;;;;;4879873;29;20053;-80
2022/01/29 10:13:50;;;;;;;16.73;8.68;;;;;;;;;;4887896;29;20041;-82
2022/01/29 10:16:41;;;;;;;12.05;6.50;;;;;;;;;;4861743;29;20053;-79
2022/01/29 10:19:31;;;;;;;10.25;5.50;;;;;;;;;;4879871;29;20136;-80
2022/01/29 10:22:23;;;;;;;12.23;5.25;;;;;;;;;;4871412;29;20409;-83
2022/01/29 10:25:23;;;;;;;7.35;4.43;;;;;;;;;;4867513;29;20393;-80
2022/01/29 10:28:21;;;;;;;8.63;4.40;;;;;;;;;;4871445;29;20045;-79
2022/01/29 10:31:08;;;;;;;11.20;4.40;;;;;;;;;;4878717;29;20404;-83
2022/01/29 10:33:53;;;;;;;12.55;6.05;;;;;;;;;;4883987;29;20045;-82
2022/01/29 10:36:38;;;;;;;7.15;4.45;;;;;;;;;;4878545;29;20041;-77
2022/01/29 10:39:30;;;;;;;11.63;5.03;;;;;;;;;;4888071;29;20045;-84
2022/01/29 10:42:28;;;;;;;10.38;5.45;;;;;;;;;;4876623;29;20504;-83
2022/01/29 10:45:13;;;;;;;5.53;3.47;;;;;;;;;;4864547;29;20041;-82
2022/01/29 10:47:59;;;;;;;11.25;5.57;;;;;;;;;;4873813;29;20397;-79
2022/01/29 10:50:44;;;;;;;9.20;4.03;;;;;;;;;;4878141;29;20053;-79
2022/01/29 10:53:29;;;;;;;8.82;4.57;;;;;;;;;;4873176;29;20041;-79
2022/01/29 10:56:15;;;;;;;7.32;4.28;;;;;;;;;;4873416;29;20052;-85
2022/01/29 10:59:00;;;;;;;7.05;4.78;;;;;;;;;;4866715;29;20045;-83
2022/01/29 11:02:16;;;;;;;11.07;4.85;;;;;;;;;;4880803;29;20048;-83
2022/01/29 11:05:03;;;;;;;11.98;4.63;;;;;;;;;;4867245;29;20049;-83
2022/01/29 11:07:54;;;;;;;9.88;4.63;;;;;;;;;;4874601;29;20049;-81
2022/01/29 11:10:39;;;;;;;8.32;3.95;;;;;;;;;;4876732;29;20501;-82
2022/01/29 11:13:26;;;;;;;6.32;3.90;;;;;;;;;;4872270;29;20048;-81
2022/01/29 11:16:18;;;;;;;10.88;5.43;;;;;;;;;;4863101;29;20057;-82
2022/01/29 11:19:03;;;;;;;9.80;4.90;;;;;;;;;;4870591;29;20396;-82
2022/01/29 11:21:52;;;;;;;11.38;4.28;;;;;;;;;;4899449;29;20052;-82
2022/01/29 11:24:40;;;;;;;9.38;5.03;;;;;;;;;;4896439;29;20404;-82
2022/01/29 11:27:31;;;;;;;9.85;3.42;;;;;;;;;;4862069;29;20254;-82
2022/01/29 11:30:16;;;;;;;8.52;4.25;;;;;;;;;;4871700;29;20061;-79
2022/01/29 11:33:02;;;;;;;8.95;5.05;;;;;;;;;;4879175;29;20057;-81
2022/01/29 11:35:53;;;;;;;5.85;3.95;;;;;;;;;;4895336;29;20040;-82
2022/01/29 11:38:39;;;;;;;13.15;5.63;;;;;;;;;;4897733;29;20048;-80
2022/01/29 11:41:26;;;;;;;8.43;4.13;;;;;;;;;;4880070;29;20472;-82
2022/01/29 11:44:32;;;;;;;10.02;4.72;;;;;;;;;;4885034;29;20509;-82
2022/01/29 11:47:26;;;;;;;13.55;6.43;;;;;;;;;;4881914;29;20505;-81
2022/01/29 11:50:19;;;;;;;11.15;4.80;;;;;;;;;;4884375;29;20485;-79
2022/01/29 11:53:05;;;;;;;15.27;7.65;;;;;;;;;;4879562;29;20053;-82
2022/01/29 11:55:53;;;;;;;8.90;5.10;;;;;;;;;;4879220;29;20504;-82
2022/01/29 11:58:39;;;;;;;3.88;2.60;;;;;;;;;;4879368;29;20052;-81
2022/01/29 12:01:34;;;;;;;8.25;4.45;;;;;;;;;;4882608;29;20049;-83
2022/01/29 12:04:22;;;;;;;12.00;5.75;;;;;;;;;;4888561;29;20049;-79
2022/01/29 12:07:12;;;;;;;10.95;5.50;;;;;;;;;;4873987;29;20041;-79
2022/01/29 12:10:02;;;;;;;7.07;4.03;;;;;;;;;;4885209;29;20155;-82
2022/01/29 12:13:08;;;;;;;8.15;4.40;;;;;;;;;;4877248;29;20049;-81
2022/01/29 12:15:54;;;;;;;5.72;3.90;;;;;;;;;;4876212;29;20409;-81
2022/01/29 12:18:39;;;;;;;13.50;5.93;;;;;;;;;;4865001;29;20057;-81
2022/01/29 12:21:25;;;;;;;8.25;3.78;;;;;;;;;;4863812;29;20053;-81
2022/01/29 12:24:11;;;;;;;4.82;3.20;;;;;;;;;;4874313;29;20049;-79
2022/01/29 12:26:56;;;;;;;5.40;3.50;;;;;;;;;;4879826;29;20045;-81
2022/01/29 12:29:42;;;;;;;4.88;3.05;;;;;;;;;;4888104;29;20049;-81
2022/01/29 12:32:27;;;;;;;5.60;3.40;;;;;;;;;;4884341;29;20053;-82
2022/01/29 12:35:13;;;;;;;3.28;2.65;;;;;;;;;;4882751;29;20056;-82
2022/01/29 12:37:58;;;;;;;5.90;3.55;;;;;;;;;;4907233;29;20056;-81
2022/01/29 12:40:56;;;;;;;10.88;5.57;;;;;;;;;;4900503;29;20044;-80
2022/01/29 12:43:59;;;;;;;5.47;3.53;;;;;;;;;;4901343;29;20064;-82
2022/01/29 12:46:45;;;;;;;7.85;3.90;;;;;;;;;;4905186;29;20060;-82
2022/01/29 12:49:43;;;;;;;7.75;3.80;;;;;;;;;;4861973;29;20401;-79
2022/01/29 12:52:29;;;;;;;7.63;4.45;;;;;;;;;;4899134;29;20048;-83
2022/01/29 12:55:14;;;;;;;10.55;4.45;;;;;;;;;;4898830;29;20049;-80
2022/01/29 12:58:00;;;;;;;9.32;4.82;;;;;;;;;;4886723;29;20400;-82
2022/01/29 13:01:01;;;;;;;8.65;3.85;;;;;;;;;;4864861;29;20488;-83
2022/01/29 13:03:46;;;;;;;9.50;5.55;;;;;;;;;;4872864;29;20049;-82
2022/01/29 13:06:32;;;;;;;6.72;3.80;;;;;;;;;;4863291;29;20049;-81
2022/01/29 13:09:20;;;;;;;9.45;4.45;;;;;;;;;;4895874;29;20476;-81
2022/01/29 13:12:10;;;;;;;7.68;3.38;;;;;;;;;;4862781;29;20057;-84
2022/01/29 13:14:55;;;;;;;6.65;4.07;;;;;;;;;;4868638;29;20474;-81
2022/01/29 13:17:43;;;;;;;11.52;4.90;;;;;;;;;;4864084;29;20397;-82
2022/01/29 13:20:28;;;;;;;10.55;5.25;;;;;;;;;;4868521;29;20485;-82
2022/01/29 13:23:14;;;;;;;21.13;10.00;;;;;;;;;;4878389;29;20056;-82
2022/01/29 13:26:20;;;;;;;20.08;10.55;;;;;;;;;;4868701;29;20050;-82
2022/01/29 13:29:08;;;;;;;;;;;;;;;;;;4873469;29;20041;-82
2022/01/29 13:31:53;;;;;;;6.80;4.28;;;;;;;;;;4872015;29;19919;-83
2022/01/29 13:34:44;;;;;;;9.80;4.70;;;;;;;;;;4885603;29;20064;-82
2022/01/29 13:37:34;;;;;;;7.18;4.03;;;;;;;;;;4890980;29;20037;-82
2022/01/29 13:40:31;;;;;;;8.52;4.82;;;;;;;;;;4902619;29;20049;-82
2022/01/29 13:43:33;;;;;;;9.73;4.78;;;;;;;;;;4885705;29;20049;-83
2022/01/29 13:46:21;;;;;;;21.65;6.07;;;;;;;;;;4905734;29;20049;-82
2022/01/29 13:49:07;;;;;;;5.40;3.42;;;;;;;;;;4891507;29;20037;-82
2022/01/29 13:51:54;;;;;;;7.20;4.22;;;;;;;;;;4890750;29;20065;-82
2022/01/29 13:54:39;;;;;;;11.63;6.20;;;;;;;;;;4887866;29;20044;-80
2022/01/29 13:57:24;;;;;;;5.50;3.70;;;;;;;;;;4885597;29;20061;-83
2022/01/29 14:00:11;;;;;;;13.10;7.35;;;;;;;;;;4892722;29;20057;-83
2022/01/29 14:02:58;;;;;;;10.55;4.60;;;;;;;;;;4891332;29;20056;-82
2022/01/29 14:05:44;;;;;;;10.93;5.38;;;;;;;;;;4901481;29;20048;-79
2022/01/29 14:08:30;;;;;;;14.77;7.43;;;;;;;;;;4916756;29;20044;-80
2022/01/29 14:11:16;;;;;;;10.57;5.65;;;;;;;;;;4926252;29;20045;-82
2022/01/29 14:14:02;;;;;;;11.52;6.00;;;;;;;;;;4895152;29;20045;-80
2022/01/29 14:16:48;;;;;;;14.15;4.85;;;;;;;;;;4886848;29;20432;-82
2022/01/29 14:19:35;;;;;;;13.20;6.35;;;;;;;;;;4888595;29;20049;-83
2022/01/29 14:22:22;;;;;;;9.40;5.47;;;;;;;;;;4888587;29;20049;-83
2022/01/29 14:25:13;;;;;;;25.13;10.80;;;;;;;;;;4888502;29;20056;-82
2022/01/29 14:27:59;;;;;;;20.55;10.20;;;;;;;;;;4888496;29;20049;-83
2022/01/29 14:30:45;;;;;;;23.10;9.73;;;;;;;;;;4885008;29;20046;-82
2022/01/29 14:33:30;;;;;;;20.15;10.63;;;;;;;;;;4873935;29;20049;-81
2022/01/29 14:36:15;;;;;;;25.25;14.88;;;;;;;;;;4874795;29;20053;-81
2022/01/29 14:39:03;;;;;;;34.67;13.88;;;;;;;;;;4881952;29;20057;-83
2022/01/29 14:41:49;;;;;;;25.88;15.02;;;;;;;;;;4891880;29;20429;-81
2022/01/29 14:44:43;;;;;;;27.30;13.43;;;;;;;;;;4879389;29;20049;-82
2022/01/29 14:47:29;;;;;;;21.98;10.15;;;;;;;;;;4869131;29;20083;-82
2022/01/29 14:50:27;;;;;;;26.92;11.02;;;;;;;;;;4876030;29;20049;-79
2022/01/29 14:53:15;;;;;;;25.10;10.48;;;;;;;;;;4873623;29;20049;-80
2022/01/29 14:55:59;;;;;;;23.73;9.35;;;;;;;;;;4871796;29;20050;-81
2022/01/29 14:58:45;;;;;;;23.73;10.50;;;;;;;;;;4852365;29;20053;-81
2022/01/29 15:01:30;;;;;;;25.50;11.98;;;;;;;;;;4865754;29;20053;-82
2022/01/29 15:04:15;;;;;;;32.00;13.32;;;;;;;;;;4871467;29;20053;-80
2022/01/29 15:07:01;;;;;;;25.55;11.95;;;;;;;;;;4865477;29;20050;-81
2022/01/29 15:09:48;;;;;;;39.45;15.73;;;;;;;;;;4865308;29;20042;-82
2022/01/29 15:12:33;;;;;;;58.63;23.77;;;;;;;;;;4871157;29;20057;-82
2022/01/29 15:15:18;;;;;;;128.05;42.72;;;;;;;;;;4890098;29;20052;-81
2022/01/29 15:18:04;;;;;;;104.75;35.25;;;;;;;;;;4879705;29;20048;-82
2022/01/29 15:20:52;;;;;;;203.10;48.35;;;;;;;;;;4869216;29;20045;-81
2022/01/29 15:23:37;;;;;;;186.70;48.00;;;;;;;;;;4874348;29;20053;-83
2022/01/29 15:26:23;;;;;;;265.20;69.57;;;;;;;;;;4872465;29;20057;-82
2022/01/29 15:29:09;;;;;;;182.60;52.00;;;;;;;;;;4865736;29;20409;-82
2022/01/29 15:31:54;;;;;;;58.33;28.05;;;;;;;;;;4865607;29;20057;-82
2022/01/29 15:34:40;;;;;;;59.53;31.23;;;;;;;;;;4871321;29;20058;-82
2022/01/29 15:37:25;;;;;;;40.00;20.40;;;;;;;;;;4864561;29;20401;-82
2022/01/29 15:40:12;;;;;;;51.53;23.38;;;;;;;;;;4865280;29;20049;-81
2022/01/29 15:42:58;;;;;;;64.55;29.88;;;;;;;;;;4872243;29;20057;-81
2022/01/29 15:45:44;;;;;;;92.45;36.47;;;;;;;;;;4874056;29;20116;-81
2022/01/29 15:48:30;;;;;;;142.52;53.30;;;;;;;;;;4885763;29;20483;-83
2022/01/29 15:51:15;;;;;;;132.73;55.08;;;;;;;;;;4899929;29;20048;-81
2022/01/29 15:54:01;;;;;;;98.63;43.38;;;;;;;;;;4904619;29;20045;-80
2022/01/29 15:56:49;;;;;;;88.57;40.72;;;;;;;;;;4878193;29;20057;-79
2022/01/29 15:59:34;;;;;;;92.05;40.35;;;;;;;;;;4881726;29;20045;-78
2022/01/29 16:02:19;;;;;;;112.50;46.83;;;;;;;;;;4885224;29;20057;-79
2022/01/29 16:05:05;;;;;;;98.03;46.58;;;;;;;;;;4892418;29;20056;-81
2022/01/29 16:07:51;;;;;;;91.75;43.60;;;;;;;;;;4874726;29;20049;-80
2022/01/29 16:10:36;;;;;;;100.85;47.38;;;;;;;;;;4886095;29;20045;-80
2022/01/29 16:13:26;;;;;;;90.03;43.92;;;;;;;;;;4891191;29;20473;-79
2022/01/29 16:16:11;;;;;;;95.40;44.33;;;;;;;;;;4883919;29;20421;-79
2022/01/29 16:18:57;;;;;;;99.57;44.17;;;;;;;;;;4877298;29;20057;-80
2022/01/29 16:21:43;;;;;;;98.88;44.40;;;;;;;;;;4883529;29;20041;-81
2022/01/29 16:24:28;;;;;;;101.07;44.47;;;;;;;;;;4872786;29;20053;-79
2022/01/29 16:27:14;;;;;;;120.32;53.38;;;;;;;;;;4879140;29;20049;-79
2022/01/29 16:29:59;;;;;;;94.68;39.70;;;;;;;;;;4889505;29;20501;-79
2022/01/29 16:32:45;;;;;;;62.33;26.25;;;;;;;;;;4888714;29;20036;-78
2022/01/29 16:35:30;;;;;;;80.97;34.13;;;;;;;;;;4886776;29;20048;-79
2022/01/29 16:38:17;;;;;;;102.60;40.53;;;;;;;;;;4905137;29;20053;-81
2022/01/29 16:41:02;;;;;;;120.57;44.90;;;;;;;;;;4889292;29;20382;-79